Time;durP1;ratioP1;P1;durP2;ratioP2;P2;SDS_P1;SDS_P2;PMS_P1;PMS_P2;Temp;Humidity;BMP_temperature;BMP_pressure;BME280_temperature;BME280_humidity;BME280_pressure;Samples;Min_cycle;Max_cycle;Signal;HPM_P1;HPM_P2
2024/01/02 00:00:31;;;;;;;14.83;5.00;;;;;;;5.55;72.45;100054.94;5089537;28;20140;-81
2024/01/02 00:02:56;;;;;;;14.37;4.97;;;;;;;5.58;72.28;100048.84;5089462;28;20105;-82
2024/01/02 00:05:22;;;;;;;13.43;5.30;;;;;;;5.60;71.96;100027.13;5089298;28;20020;-82
2024/01/02 00:07:47;;;;;;;14.30;5.23;;;;;;;5.60;71.65;100026.25;5089743;28;20067;-81
2024/01/02 00:10:14;;;;;;;17.13;5.22;;;;;;;5.58;71.91;100022.72;5089516;28;20510;-82
2024/01/02 00:12:40;;;;;;;15.07;5.25;;;;;;;5.55;71.43;100018.38;5071225;28;20440;-81
2024/01/02 00:15:06;;;;;;;18.70;6.67;;;;;;;5.53;72.17;100016.59;5092816;28;20111;-81
2024/01/02 00:17:32;;;;;;;17.42;5.68;;;;;;;5.48;72.48;100010.44;5094009;28;20020;-82
2024/01/02 00:19:57;;;;;;;20.67;5.50;;;;;;;5.43;71.67;100000.81;5093517;28;20043;-81
2024/01/02 00:22:23;;;;;;;16.10;5.00;;;;;;;5.43;72.12;100006.03;5073039;28;20029;-83
2024/01/02 00:24:48;;;;;;;16.20;4.97;;;;;;;5.42;72.07;100009.47;5093028;28;20058;-83
2024/01/02 00:27:13;;;;;;;13.93;5.13;;;;;;;5.42;71.82;100011.22;5093672;28;20032;-81
2024/01/02 00:29:39;;;;;;;14.87;4.70;;;;;;;5.42;71.99;100006.84;5093060;28;20532;-81
2024/01/02 00:32:05;;;;;;;14.47;5.10;;;;;;;5.43;72.12;100008.66;5093711;28;20052;-81
2024/01/02 00:34:30;;;;;;;13.85;4.55;;;;;;;5.43;71.66;100012.97;5074953;28;20024;-82
2024/01/02 00:36:55;;;;;;;14.67;4.80;;;;;;;5.42;72.02;100012.09;5075027;28;20127;-81
2024/01/02 00:39:21;;;;;;;14.17;5.07;;;;;;;5.43;71.55;100013.88;5093317;28;20031;-80
2024/01/02 00:41:46;;;;;;;13.63;4.63;;;;;;;5.47;71.70;100014.75;5092923;28;20111;-82
2024/01/02 00:44:11;;;;;;;13.80;4.90;;;;;;;5.50;71.50;100013.94;5074264;28;20028;-82
2024/01/02 00:46:37;;;;;;;12.70;4.40;;;;;;;5.51;72.12;100007.84;5074912;28;20553;-81
2024/01/02 00:49:03;;;;;;;18.48;5.25;;;;;;;5.52;72.17;100007.84;5093258;28;20086;-82
2024/01/02 00:51:28;;;;;;;12.87;5.03;;;;;;;5.51;72.11;100005.25;5093436;28;20060;-84
2024/01/02 00:53:54;;;;;;;13.63;5.17;;;;;;;5.50;72.00;100000.88;5074914;28;20020;-84
2024/01/02 00:56:19;;;;;;;14.13;4.70;;;;;;;5.48;72.03;100000.84;5093107;28;20314;-82
2024/01/02 00:58:45;;;;;;;13.73;4.53;;;;;;;5.47;71.75;100006.94;5092632;28;20028;-82
2024/01/02 01:01:10;;;;;;;15.37;4.87;;;;;;;5.46;71.67;100006.06;5092919;28;20726;-84
2024/01/02 01:03:35;;;;;;;11.87;4.60;;;;;;;5.46;72.04;99998.22;5092433;28;20044;-82
2024/01/02 01:06:03;;;;;;;15.20;4.93;;;;;;;5.45;72.37;99987.75;5074538;28;20052;-82
2024/01/02 01:08:28;;;;;;;14.10;4.75;;;;;;;5.46;71.45;99995.63;5092507;28;20024;-83
2024/01/02 01:10:53;;;;;;;13.20;4.67;;;;;;;5.43;71.87;99986.84;5092773;28;20440;-81
2024/01/02 01:13:19;;;;;;;17.37;5.17;;;;;;;5.41;72.17;99991.19;5092721;28;20044;-83
2024/01/02 01:15:44;;;;;;;14.10;4.83;;;;;;;5.39;71.90;99998.13;5092215;28;20511;-82
2024/01/02 01:18:09;;;;;;;13.43;4.43;;;;;;;5.35;72.24;99999.81;5092601;28;20269;-82
2024/01/02 01:20:35;;;;;;;12.00;4.23;;;;;;;5.35;72.28;99999.81;5098007;28;20047;-81
2024/01/02 01:23:00;;;;;;;14.90;4.70;;;;;;;5.34;72.89;100011.13;5112478;28;20036;-81
2024/01/02 01:25:26;;;;;;;10.53;4.23;;;;;;;5.34;72.84;100005.03;5106110;28;20307;-82
2024/01/02 01:27:51;;;;;;;13.52;4.55;;;;;;;5.32;71.89;100005.00;5092104;28;20465;-81
2024/01/02 01:30:16;;;;;;;14.17;4.37;;;;;;;5.32;72.16;100002.38;5091871;28;20469;-82
2024/01/02 01:32:42;;;;;;;12.23;4.83;;;;;;;5.31;71.89;100014.59;5092254;28;20020;-81
2024/01/02 01:35:07;;;;;;;17.87;4.70;;;;;;;5.31;72.56;100013.69;5092212;28;20140;-81
2024/01/02 01:37:33;;;;;;;12.63;4.80;;;;;;;5.30;72.27;100015.44;5092451;28;20028;-81
2024/01/02 01:39:58;;;;;;;14.90;4.90;;;;;;;5.30;72.68;99998.88;5091894;28;20051;-81
2024/01/02 01:42:24;;;;;;;16.27;4.60;;;;;;;5.26;72.21;100005.78;5091969;28;20028;-82
2024/01/02 01:44:49;;;;;;;15.30;4.82;;;;;;;5.24;72.04;100012.72;5073281;28;20023;-81
2024/01/02 01:47:15;;;;;;;14.00;5.10;;;;;;;5.22;72.22;100013.59;5091945;28;20492;-82
2024/01/02 01:49:41;;;;;;;16.00;5.30;;;;;;;5.21;72.88;100014.44;5091980;28;20089;-83
2024/01/02 01:52:09;;;;;;;16.13;4.90;;;;;;;5.20;72.07;100012.69;5091934;28;20032;-80
2024/01/02 01:54:35;;;;;;;19.48;7.53;;;;;;;5.19;72.72;100008.31;5091700;28;20028;-83
2024/01/02 01:57:00;;;;;;;13.95;6.13;;;;;;;5.20;72.79;100004.84;5092258;28;20154;-81
2024/01/02 01:59:26;;;;;;;15.37;6.27;;;;;;;5.23;72.79;100004.88;5091280;28;20474;-82
2024/01/02 02:01:52;;;;;;;18.10;5.72;;;;;;;5.24;72.58;100002.28;5091588;28;20031;-83
2024/01/02 02:04:19;;;;;;;14.45;5.13;;;;;;;5.28;72.92;100001.47;5091517;28;20121;-81
2024/01/02 02:06:45;;;;;;;12.23;4.70;;;;;;;5.30;72.13;100011.94;5073249;28;20028;-82
2024/01/02 02:09:10;;;;;;;11.88;5.30;;;;;;;5.32;72.44;100013.72;5091535;28;20035;-82
2024/01/02 02:11:37;;;;;;;14.47;5.83;;;;;;;5.35;72.61;100012.88;5091505;28;20134;-83
2024/01/02 02:14:03;;;;;;;26.90;6.25;;;;;;;5.34;72.57;100016.34;5090994;28;20024;-82
2024/01/02 02:16:28;;;;;;;18.77;7.30;;;;;;;5.27;72.79;100004.06;5073488;28;20054;-81
2024/01/02 02:18:55;;;;;;;20.77;7.82;;;;;;;5.21;72.98;100001.38;5091546;28;20028;-82
2024/01/02 02:21:20;;;;;;;19.38;6.43;;;;;;;5.17;72.66;100000.44;5102612;28;20032;-82
2024/01/02 02:23:46;;;;;;;22.87;7.00;;;;;;;5.15;73.38;100007.38;5109951;28;20046;-81
2024/01/02 02:26:11;;;;;;;15.97;4.97;;;;;;;5.16;73.23;100004.78;5099987;28;20078;-82
2024/01/02 02:28:37;;;;;;;13.87;4.40;;;;;;;5.16;73.03;99994.34;5091023;28;20073;-82
2024/01/02 02:31:03;;;;;;;15.02;4.47;;;;;;;5.16;73.37;99993.47;5091467;28;20077;-83
2024/01/02 02:33:29;;;;;;;13.00;3.80;;;;;;;5.14;72.75;99993.44;5093044;28;20084;-80
2024/01/02 02:35:55;;;;;;;11.68;3.78;;;;;;;5.10;73.18;99988.19;5094500;28;20107;-82
2024/01/02 02:38:20;;;;;;;10.90;3.88;;;;;;;5.09;73.10;99978.59;5090760;28;20115;-83
2024/01/02 02:40:46;;;;;;;12.10;3.70;;;;;;;5.10;73.57;99978.59;5090787;28;20024;-81
2024/01/02 02:43:11;;;;;;;11.33;3.00;;;;;;;5.14;73.54;99983.00;5090587;28;20028;-81
2024/01/02 02:45:37;;;;;;;11.93;3.17;;;;;;;5.19;73.64;99990.06;5090291;28;20020;-83
2024/01/02 02:48:02;;;;;;;14.00;3.60;;;;;;;5.23;72.72;99986.63;5090818;28;20043;-81
2024/01/02 02:50:28;;;;;;;10.13;3.30;;;;;;;5.23;72.57;99978.78;5090836;28;20052;-83
2024/01/02 02:52:53;;;;;;;10.37;3.43;;;;;;;5.21;73.02;99977.88;5072352;28;20030;-82
2024/01/02 02:55:18;;;;;;;10.37;3.43;;;;;;;5.20;73.34;99978.75;5090558;28;20463;-81
2024/01/02 02:57:44;;;;;;;11.77;3.57;;;;;;;5.20;72.99;99974.38;5090509;28;20403;-81
2024/01/02 03:00:11;;;;;;;14.63;3.70;;;;;;;5.24;72.90;99975.31;5090158;28;20403;-82
2024/01/02 03:02:36;;;;;;;14.77;3.67;;;;;;;5.26;72.63;99973.59;5090489;28;20020;-83
2024/01/02 03:05:02;;;;;;;9.73;3.83;;;;;;;5.24;73.15;99970.09;5090754;28;20070;-81
2024/01/02 03:07:27;;;;;;;15.23;3.38;;;;;;;5.26;73.24;99973.59;5090267;28;20028;-81
2024/01/02 03:09:53;;;;;;;12.07;3.43;;;;;;;5.28;73.44;99969.28;5090410;28;20104;-80
2024/01/02 03:12:18;;;;;;;10.60;3.10;;;;;;;5.31;72.74;99961.47;5090244;28;20103;-83
2024/01/02 03:14:44;;;;;;;10.38;3.10;;;;;;;5.34;72.98;99956.28;5090083;28;20545;-82
2024/01/02 03:17:09;;;;;;;12.00;3.57;;;;;;;5.37;73.06;99951.09;5090288;28;20028;-81
2024/01/02 03:19:35;;;;;;;12.00;3.20;;;;;;;5.39;73.43;99944.16;5090313;28;20076;-81
2024/01/02 03:22:00;;;;;;;12.52;3.45;;;;;;;5.38;72.72;99936.31;5107000;28;20032;-82
2024/01/02 03:24:26;;;;;;;12.80;3.37;;;;;;;5.36;72.83;99928.47;5097623;28;20086;-83
2024/01/02 03:26:51;;;;;;;11.70;3.23;;;;;;;5.32;72.79;99926.66;5093553;28;20365;-81
2024/01/02 03:29:16;;;;;;;7.83;2.90;;;;;;;5.28;73.42;99927.50;5071356;28;20058;-81
2024/01/02 03:31:43;;;;;;;10.60;3.45;;;;;;;5.26;73.59;99913.56;5090011;28;20183;-83
2024/01/02 03:34:08;;;;;;;11.70;3.10;;;;;;;5.29;72.60;99913.59;5090137;28;20449;-82
2024/01/02 03:36:34;;;;;;;11.73;2.97;;;;;;;5.30;72.76;99910.13;5090470;28;20099;-81
2024/01/02 03:38:59;;;;;;;7.70;3.03;;;;;;;5.30;73.09;99908.41;5090231;28;20028;-82
2024/01/02 03:41:25;;;;;;;11.83;3.27;;;;;;;5.29;72.71;99890.94;5089971;28;20051;-82
2024/01/02 03:43:50;;;;;;;13.57;3.07;;;;;;;5.26;73.01;99890.06;5089336;28;20412;-83
2024/01/02 03:46:15;;;;;;;10.77;3.57;;;;;;;5.24;73.66;99883.94;5089541;28;20644;-81
2024/01/02 03:48:41;;;;;;;11.80;3.50;;;;;;;5.19;72.78;99883.03;5089850;28;20041;-81
2024/01/02 03:51:06;;;;;;;13.47;2.93;;;;;;;5.14;72.85;99888.19;5090044;28;20289;-81
2024/01/02 03:53:31;;;;;;;13.60;3.00;;;;;;;5.11;73.75;99886.41;5089694;28;20111;-80
2024/01/02 03:55:58;;;;;;;10.17;2.50;;;;;;;5.11;73.57;99886.41;5071865;28;20016;-81
2024/01/02 03:58:24;;;;;;;9.90;2.72;;;;;;;5.12;72.96;99882.06;5090301;28;20094;-82
2024/01/02 04:00:50;;;;;;;9.15;2.42;;;;;;;5.10;73.06;99883.78;5071376;28;20035;-82
2024/01/02 04:03:16;;;;;;;11.02;3.13;;;;;;;5.09;73.54;99890.72;5071465;28;20028;-83
2024/01/02 04:05:41;;;;;;;12.07;3.87;;;;;;;5.03;73.19;99893.25;5089472;28;20111;-83
2024/01/02 04:08:06;;;;;;;9.57;2.93;;;;;;;5.01;73.84;99894.97;5089624;28;20536;-82
2024/01/02 04:10:32;;;;;;;8.30;2.43;;;;;;;4.97;73.64;99903.63;5089298;28;20472;-80
2024/01/02 04:12:57;;;;;;;10.80;3.00;;;;;;;4.98;73.71;99892.34;5089770;28;20032;-81
2024/01/02 04:15:23;;;;;;;10.10;2.83;;;;;;;5.00;73.33;99890.63;5089022;28;20032;-82
2024/01/02 04:17:48;;;;;;;9.83;2.80;;;;;;;4.99;73.18;99881.91;5089394;28;20331;-81
2024/01/02 04:20:13;;;;;;;9.47;2.67;;;;;;;4.92;73.56;99861.81;5091212;28;20051;-82
2024/01/02 04:22:39;;;;;;;10.67;2.80;;;;;;;4.88;73.62;99855.66;5109607;28;20023;-81
2024/01/02 04:25:06;;;;;;;9.15;2.10;;;;;;;4.83;73.69;99840.84;5106049;28;20085;-82
2024/01/02 04:27:32;;;;;;;10.50;2.40;;;;;;;4.85;73.54;99842.59;5089264;28;20025;-81
2024/01/02 04:29:57;;;;;;;10.17;2.73;;;;;;;4.86;73.71;99831.31;5070656;28;20491;-81
2024/01/02 04:32:23;;;;;;;10.60;1.97;;;;;;;4.87;73.41;99840.03;5089194;28;20403;-81
2024/01/02 04:34:48;;;;;;;11.10;3.30;;;;;;;4.87;73.00;99846.09;5089275;28;20078;-81
2024/01/02 04:37:13;;;;;;;8.57;2.60;;;;;;;4.88;73.52;99841.78;5089419;28;20315;-80
2024/01/02 04:39:39;;;;;;;11.43;2.37;;;;;;;4.83;73.56;99846.91;5089298;28;20067;-81
2024/01/02 04:42:05;;;;;;;10.60;2.00;;;;;;;4.78;73.51;99846.00;5089034;28;20020;-82
2024/01/02 04:44:30;;;;;;;10.00;2.33;;;;;;;4.74;73.50;99845.06;5070382;28;20020;-81
2024/01/02 04:46:55;;;;;;;6.77;1.93;;;;;;;4.74;73.49;99849.44;5088945;28;20472;-81
2024/01/02 04:49:21;;;;;;;8.83;1.90;;;;;;;4.76;73.16;99847.72;5088796;28;20024;-81
2024/01/02 04:51:46;;;;;;;8.27;1.97;;;;;;;4.77;73.21;99849.47;5089145;28;20029;-81
2024/01/02 04:54:12;;;;;;;6.80;2.20;;;;;;;4.77;73.43;99838.13;5088979;28;20361;-81
2024/01/02 04:56:37;;;;;;;10.07;2.00;;;;;;;4.74;73.46;99834.63;5089150;28;20100;-80
2024/01/02 04:59:03;;;;;;;8.38;2.13;;;;;;;4.73;73.44;99845.91;5088735;28;20036;-81
2024/01/02 05:01:29;;;;;;;8.73;2.30;;;;;;;4.70;73.21;99834.56;5092886;28;20024;-80
2024/01/02 05:03:54;;;;;;;7.10;1.83;;;;;;;4.69;73.57;99836.31;5092713;28;20036;-81
2024/01/02 05:06:20;;;;;;;8.03;2.20;;;;;;;4.67;73.29;99826.69;5092627;28;20758;-81
2024/01/02 05:08:46;;;;;;;9.02;2.22;;;;;;;4.65;73.11;99818.00;5092696;28;20361;-81
2024/01/02 05:11:11;;;;;;;12.43;2.23;;;;;;;4.67;73.27;99813.66;5092874;28;20099;-80
2024/01/02 05:13:38;;;;;;;8.10;2.50;;;;;;;4.63;73.55;99817.09;5092326;28;20023;-80
2024/01/02 05:16:03;;;;;;;6.28;1.83;;;;;;;4.63;73.47;99817.09;5092673;28;20056;-81
2024/01/02 05:18:29;;;;;;;9.87;2.13;;;;;;;4.62;73.44;99797.09;5092614;28;20520;-82
2024/01/02 05:20:54;;;;;;;10.67;1.93;;;;;;;4.60;73.40;99805.75;5100235;28;20057;-82
2024/01/02 05:23:19;;;;;;;7.60;2.00;;;;;;;4.62;73.64;99816.22;5112473;28;20407;-80
2024/01/02 05:25:45;;;;;;;7.27;1.87;;;;;;;4.63;73.75;99814.47;5103747;28;20023;-82
2024/01/02 05:28:10;;;;;;;8.57;2.20;;;;;;;4.63;73.63;99810.16;5092037;28;20487;-82
2024/01/02 05:30:36;;;;;;;9.90;2.50;;;;;;;4.60;73.42;99810.97;5092004;28;20099;-81
2024/01/02 05:33:01;;;;;;;7.97;2.30;;;;;;;4.59;73.39;99808.38;5092392;28;20115;-81
2024/01/02 05:35:26;;;;;;;12.50;2.10;;;;;;;4.57;73.48;99816.16;5092405;28;20099;-82
2024/01/02 05:37:52;;;;;;;7.27;2.00;;;;;;;4.55;73.65;99817.00;5092185;28;20115;-82
2024/01/02 05:40:17;;;;;;;8.93;1.90;;;;;;;4.50;73.97;99816.94;5092369;28;20073;-80
2024/01/02 05:42:43;;;;;;;11.53;2.57;;;;;;;4.47;73.77;99818.63;5092050;28;20111;-81
2024/01/02 05:45:09;;;;;;;7.72;1.95;;;;;;;4.44;73.74;99824.66;5091049;28;20038;-82
2024/01/02 05:47:34;;;;;;;12.27;2.47;;;;;;;4.42;73.99;99826.38;5092013;28;20209;-81
2024/01/02 05:49:59;;;;;;;9.67;2.40;;;;;;;4.40;74.21;99825.47;5092026;28;20806;-80
2024/01/02 05:52:25;;;;;;;13.37;2.30;;;;;;;4.40;73.79;99835.91;5073907;28;20038;-82
2024/01/02 05:54:50;;;;;;;7.47;2.30;;;;;;;4.41;73.88;99835.94;5092041;28;20032;-81
2024/01/02 05:57:15;;;;;;;7.23;1.73;;;;;;;4.44;73.60;99841.19;5091950;28;20020;-80
2024/01/02 05:59:41;;;;;;;8.60;2.17;;;;;;;4.46;73.39;99843.81;5091685;28;20028;-81
2024/01/02 06:02:06;;;;;;;11.10;1.90;;;;;;;4.49;73.75;99849.09;5091687;28;20513;-81
2024/01/02 06:04:32;;;;;;;9.17;1.90;;;;;;;4.53;73.96;99850.88;5091583;28;20032;-81
2024/01/02 06:06:57;;;;;;;8.70;1.73;;;;;;;4.53;74.00;99845.66;5091725;28;20115;-80
2024/01/02 06:09:23;;;;;;;12.02;2.33;;;;;;;4.56;74.24;99845.72;5091817;28;20024;-80
2024/01/02 06:11:49;;;;;;;9.10;1.98;;;;;;;4.60;73.92;99842.28;5090612;28;20408;-81
2024/01/02 06:14:15;;;;;;;7.97;1.80;;;;;;;4.65;73.74;99833.63;5091140;28;20116;-81
2024/01/02 06:16:41;;;;;;;8.15;2.15;;;;;;;4.68;73.62;99837.16;5091534;28;20055;-81
2024/01/02 06:19:07;;;;;;;11.10;1.97;;;;;;;4.74;73.71;99841.59;5091319;28;20396;-80
2024/01/02 06:21:32;;;;;;;8.63;1.45;;;;;;;4.78;74.08;99856.44;5104504;28;20148;-81
2024/01/02 06:23:57;;;;;;;7.77;1.30;;;;;;;4.81;73.87;99861.69;5109897;28;20036;-82
2024/01/02 06:26:23;;;;;;;9.47;1.70;;;;;;;4.86;73.54;99860.00;5098725;28;20024;-81
2024/01/02 06:28:48;;;;;;;8.33;1.40;;;;;;;4.91;73.08;99848.75;5090750;28;20021;-81
2024/01/02 06:31:14;;;;;;;7.00;1.55;;;;;;;4.93;73.26;99839.19;5091278;28;20024;-81
2024/01/02 06:33:44;;;;;;;8.27;1.60;;;;;;;4.96;73.18;99844.47;5090940;28;20434;-82
2024/01/02 06:36:10;;;;;;;7.75;1.50;;;;;;;4.97;73.09;99844.47;5091220;28;20135;-80
2024/01/02 06:38:36;;;;;;;8.55;1.35;;;;;;;5.00;73.28;99841.03;5091242;28;20041;-80
2024/01/02 06:41:02;;;;;;;9.67;1.70;;;;;;;5.02;72.73;99836.72;5090777;28;20031;-84
2024/01/02 06:43:28;;;;;;;5.90;1.42;;;;;;;5.03;72.69;99849.75;5090842;28;20034;-82
2024/01/02 06:45:54;;;;;;;7.97;2.08;;;;;;;5.06;72.91;99846.31;5090197;28;20434;-81
2024/01/02 06:48:19;;;;;;;7.50;1.47;;;;;;;5.06;73.02;99843.72;5090750;28;20059;-83
2024/01/02 06:50:44;;;;;;;7.47;1.90;;;;;;;5.07;72.70;99842.84;5090855;28;20039;-82
2024/01/02 06:53:10;;;;;;;5.93;1.90;;;;;;;5.07;73.61;99845.47;5090786;28;20047;-80
2024/01/02 06:55:35;;;;;;;8.63;1.97;;;;;;;5.10;73.08;99848.09;5090758;28;20162;-81
2024/01/02 06:58:00;;;;;;;10.57;1.90;;;;;;;5.09;73.39;99835.91;5090611;28;20031;-83
2024/01/02 07:00:26;;;;;;;7.33;1.57;;;;;;;5.08;73.24;99844.59;5090334;28;20136;-82
2024/01/02 07:02:51;;;;;;;6.30;2.03;;;;;;;5.07;73.23;99832.41;5072304;28;20028;-81
2024/01/02 07:05:17;;;;;;;7.00;1.87;;;;;;;5.08;73.10;99831.56;5090409;28;20689;-81
2024/01/02 07:07:42;;;;;;;10.15;2.42;;;;;;;5.05;73.84;99820.19;5090589;28;20036;-81
2024/01/02 07:10:08;;;;;;;6.87;1.73;;;;;;;5.04;73.38;99816.72;5090286;28;20032;-81
2024/01/02 07:12:33;;;;;;;8.17;1.70;;;;;;;5.03;73.13;99807.16;5090264;28;20028;-81
2024/01/02 07:14:59;;;;;;;5.40;1.70;;;;;;;5.03;72.89;99804.53;5090149;28;20073;-81
2024/01/02 07:17:25;;;;;;;8.90;1.63;;;;;;;5.00;73.47;99822.78;5090341;28;20516;-82
2024/01/02 07:19:51;;;;;;;7.88;1.73;;;;;;;5.00;73.26;99825.38;5071790;28;20028;-81
2024/01/02 07:22:17;;;;;;;6.17;1.60;;;;;;;4.97;73.73;99812.31;5090913;28;20032;-82
2024/01/02 07:24:43;;;;;;;7.97;1.63;;;;;;;4.97;72.96;99809.69;5108830;28;20285;-81
2024/01/02 07:27:09;;;;;;;8.32;1.73;;;;;;;4.94;73.75;99810.53;5090946;28;20036;-83
2024/01/02 07:29:34;;;;;;;7.97;1.90;;;;;;;4.93;73.68;99807.88;5089678;28;20032;-82
2024/01/02 07:32:00;;;;;;;7.15;1.65;;;;;;;4.91;73.47;99794.84;5089906;28;20058;-80
2024/01/02 07:34:25;;;;;;;8.33;1.90;;;;;;;4.88;74.24;99790.44;5090844;28;20059;-80
2024/01/02 07:36:51;;;;;;;8.47;2.00;;;;;;;4.86;73.59;99786.09;5091056;28;20077;-80
2024/01/02 07:39:16;;;;;;;8.00;1.77;;;;;;;4.82;74.54;99781.66;5092172;28;20091;-80
2024/01/02 07:41:42;;;;;;;7.80;2.10;;;;;;;4.78;74.31;99778.16;5072708;28;20526;-81
2024/01/02 07:44:07;;;;;;;10.03;2.40;;;;;;;4.77;74.58;99779.03;5089542;28;20035;-82
2024/01/02 07:46:33;;;;;;;7.77;2.37;;;;;;;4.78;74.35;99786.00;5089798;28;20013;-81
2024/01/02 07:48:58;;;;;;;6.63;2.20;;;;;;;4.76;74.74;99782.50;5071697;28;20340;-80
2024/01/02 07:51:24;;;;;;;8.73;2.10;;;;;;;4.80;74.18;99786.88;5089915;28;20416;-80
2024/01/02 07:53:49;;;;;;;9.13;2.20;;;;;;;4.82;73.97;99794.72;5071367;28;20500;-81
2024/01/02 07:56:21;;;;;;;9.67;2.10;;;;;;;4.83;74.51;99794.75;5071613;28;20127;-80
2024/01/02 07:58:47;;;;;;;10.17;2.50;;;;;;;4.85;74.04;99794.78;5070948;28;20266;-80
2024/01/02 08:01:13;;;;;;;10.98;2.70;;;;;;;4.87;74.75;99801.75;5089541;28;20030;-80
2024/01/02 08:03:39;;;;;;;10.90;3.00;;;;;;;4.89;74.06;99797.41;5071239;28;20024;-81
2024/01/02 08:06:04;;;;;;;9.10;2.35;;;;;;;4.89;74.11;99788.72;5089487;28;20038;-81
2024/01/02 08:08:29;;;;;;;11.10;2.30;;;;;;;4.91;74.73;99783.50;5089572;28;20028;-81
2024/01/02 08:10:55;;;;;;;11.23;2.10;;;;;;;4.95;74.08;99793.16;5089557;28;20028;-79
2024/01/02 08:13:20;;;;;;;11.70;2.00;;;;;;;4.98;74.21;99799.25;5071355;28;20038;-80
2024/01/02 08:15:46;;;;;;;8.47;2.40;;;;;;;5.01;74.51;99795.81;5071067;28;20500;-81
2024/01/02 08:18:11;;;;;;;12.23;2.60;;;;;;;5.05;73.97;99807.16;5089323;28;20066;-82
2024/01/02 08:20:36;;;;;;;8.50;2.20;;;;;;;5.09;74.56;99809.81;5094943;28;20503;-80
2024/01/02 08:23:02;;;;;;;10.70;2.50;;;;;;;5.16;74.63;99809.00;5109646;28;20106;-80
2024/01/02 08:25:28;;;;;;;10.95;2.85;;;;;;;5.24;74.42;99808.25;5103111;28;20178;-80
2024/01/02 08:27:53;;;;;;;11.53;2.37;;;;;;;5.30;74.05;99803.06;5071138;28;20028;-80
2024/01/02 08:30:18;;;;;;;11.50;2.47;;;;;;;5.34;74.68;99786.56;5088773;28;20028;-80
2024/01/02 08:32:44;;;;;;;9.88;2.20;;;;;;;5.41;74.04;99793.59;5089092;28;20508;-80
2024/01/02 08:35:10;;;;;;;8.38;2.25;;;;;;;5.50;74.46;99789.34;5091628;28;20463;-81
2024/01/02 08:37:35;;;;;;;7.43;1.80;;;;;;;5.57;74.09;99791.13;5093149;28;20047;-80
2024/01/02 08:40:01;;;;;;;11.27;2.20;;;;;;;5.66;74.65;99778.13;5093285;28;20020;-80
2024/01/02 08:42:26;;;;;;;6.00;1.60;;;;;;;5.75;74.11;99787.78;5093102;28;20028;-81
2024/01/02 08:44:51;;;;;;;10.03;1.90;;;;;;;5.83;74.61;99782.63;5092385;28;20518;-80
2024/01/02 08:47:17;;;;;;;7.37;2.10;;;;;;;5.91;74.51;99790.53;5093172;28;20114;-80
2024/01/02 08:49:42;;;;;;;6.37;1.60;;;;;;;5.95;74.13;99787.06;5074726;28;20270;-80
2024/01/02 08:52:07;;;;;;;11.60;2.40;;;;;;;6.00;75.32;99796.69;5092946;28;20025;-80
2024/01/02 08:54:33;;;;;;;11.40;2.57;;;;;;;6.03;75.09;99796.75;5093198;28;20024;-80
2024/01/02 08:56:58;;;;;;;16.23;2.60;;;;;;;6.08;74.61;99791.56;5092951;28;20559;-82
2024/01/02 08:59:24;;;;;;;9.50;2.28;;;;;;;6.12;74.30;99779.38;5092617;28;20024;-83
2024/01/02 09:01:50;;;;;;;7.97;1.93;;;;;;;6.16;74.70;99778.53;5092697;28;20046;-81
2024/01/02 09:04:16;;;;;;;8.98;2.25;;;;;;;6.20;74.54;99776.81;5092823;28;20507;-84
2024/01/02 09:06:41;;;;;;;8.40;1.70;;;;;;;6.26;75.09;99755.91;5093000;28;20034;-82
2024/01/02 09:09:07;;;;;;;9.33;2.13;;;;;;;6.26;74.64;99751.56;5092689;28;20207;-82
2024/01/02 09:11:34;;;;;;;11.18;2.03;;;;;;;6.31;74.99;99742.00;5092750;28;20380;-83
2024/01/02 09:14:00;;;;;;;9.07;2.00;;;;;;;6.35;74.64;99714.13;5092450;28;20058;-79
2024/01/02 09:16:30;;;;;;;11.98;2.35;;;;;;;6.40;74.22;99711.56;5092843;28;20496;-82
2024/01/02 09:18:55;;;;;;;9.57;2.40;;;;;;;6.43;74.06;99728.09;5092756;28;20032;-83
2024/01/02 09:21:20;;;;;;;9.70;2.80;;;;;;;6.46;74.25;99729.88;5104028;28;20372;-82
2024/01/02 09:23:46;;;;;;;10.47;2.50;;;;;;;6.52;74.34;99722.03;5111228;28;20055;-81
2024/01/02 09:26:16;;;;;;;10.32;2.63;;;;;;;6.57;74.41;99725.53;5101369;28;20024;-82
2024/01/02 09:28:43;;;;;;;10.83;3.17;;;;;;;6.65;74.05;99729.94;5073563;28;20255;-83
2024/01/02 09:31:08;;;;;;;9.98;2.65;;;;;;;6.71;74.32;99717.72;5092261;28;20028;-80
2024/01/02 09:33:34;;;;;;;12.27;3.77;;;;;;;6.78;74.35;99717.78;5092462;28;20032;-87
2024/01/02 09:35:59;;;;;;;11.02;2.47;;;;;;;6.85;74.18;99704.69;5092551;28;20270;-81
2024/01/02 09:38:25;;;;;;;14.03;2.90;;;;;;;6.96;74.14;99704.69;5092480;28;20072;-82
2024/01/02 09:41:27;;;;;;;10.77;2.28;;;;;;;7.11;73.44;99726.56;5092664;28;20243;-81
2024/01/02 09:44:20;;;;;;;10.83;2.30;;;;;;;7.31;73.42;99708.22;5073427;28;20024;-79
2024/01/02 09:46:49;;;;;;;8.20;2.55;;;;;;;7.50;73.17;99716.97;5071636;28;20100;-85
2024/01/02 09:49:23;;;;;;;9.15;2.60;;;;;;;7.67;73.15;99721.31;5071588;28;20028;-82
2024/01/02 09:52:13;;;;;;;9.50;2.60;;;;;;;7.76;73.17;99716.94;5053800;28;20491;-81
2024/01/02 09:55:04;;;;;;;8.93;2.40;;;;;;;7.84;73.10;99735.28;5071733;28;20035;-82
2024/01/02 09:57:46;;;;;;;13.10;2.80;;;;;;;7.90;73.37;99714.28;5064858;28;20368;-83
2024/01/02 10:00:39;;;;;;;9.60;2.97;;;;;;;7.98;73.29;99723.91;5091731;28;20080;-83
2024/01/02 10:03:26;;;;;;;11.25;3.08;;;;;;;8.03;73.36;99743.13;5091799;28;20507;-82
2024/01/02 10:06:20;;;;;;;9.60;3.13;;;;;;;8.10;73.15;99749.22;5073341;28;20028;-84
2024/01/02 10:09:15;;;;;;;13.30;3.40;;;;;;;8.16;73.15;99728.22;5091648;28;20032;-83
2024/01/02 10:11:59;;;;;;;8.80;2.47;;;;;;;8.22;73.56;99694.09;5091028;28;20028;-83
2024/01/02 10:14:31;;;;;;;5.63;1.70;;;;;;;8.31;73.87;99698.44;5091109;28;20024;-82
2024/01/02 10:17:12;;;;;;;9.05;1.77;;;;;;;8.40;73.97;99692.28;5091788;28;20023;-83
2024/01/02 10:20:08;;;;;;;9.82;1.80;;;;;;;8.50;74.03;99696.63;5073406;28;20464;-83
2024/01/02 10:22:41;;;;;;;10.57;1.92;;;;;;;8.58;74.25;99697.50;5071721;28;20028;-83
2024/01/02 10:25:13;;;;;;;9.33;2.00;;;;;;;8.66;73.59;99701.81;5064582;28;20060;-84
2024/01/02 10:27:58;;;;;;;7.28;2.03;;;;;;;8.73;74.00;99679.91;5069735;28;20025;-84
2024/01/02 10:30:31;;;;;;;7.75;1.80;;;;;;;8.74;74.03;99676.38;5069161;28;20033;-87
2024/01/02 10:33:17;;;;;;;9.65;1.85;;;;;;;8.80;74.11;99692.13;5070952;28;20059;-82
2024/01/02 10:35:53;;;;;;;7.97;1.85;;;;;;;8.81;73.92;99688.63;5070935;28;20036;-82
2024/01/02 10:38:22;;;;;;;8.50;2.00;;;;;;;8.84;74.18;99662.34;5071100;28;20028;-83
2024/01/02 10:41:01;;;;;;;12.98;2.33;;;;;;;8.88;74.00;99668.41;5070878;28;20546;-83
2024/01/02 10:43:52;;;;;;;10.35;1.58;;;;;;;8.93;74.70;99681.53;5070787;28;20115;-83
2024/01/02 10:46:25;;;;;;;9.85;1.70;;;;;;;9.00;74.16;99677.97;5059518;28;20049;-80
2024/01/02 10:49:22;;;;;;;9.20;1.65;;;;;;;8.97;73.95;99662.22;5070756;28;20029;-84
2024/01/02 10:51:56;;;;;;;8.73;1.77;;;;;;;8.99;74.46;99686.72;5070714;28;20027;-83
2024/01/02 10:54:54;;;;;;;12.80;2.17;;;;;;;8.96;74.57;99661.38;5070514;28;20050;-82
2024/01/02 10:57:45;;;;;;;12.18;2.63;;;;;;;8.96;74.17;99676.25;5070051;28;20028;-84
2024/01/02 11:00:21;;;;;;;17.00;3.45;;;;;;;8.99;74.76;99665.72;5071015;28;20016;-82
2024/01/02 11:02:58;;;;;;;11.65;2.63;;;;;;;9.04;74.39;99675.31;5070498;28;20063;-85
2024/01/02 11:05:37;;;;;;;16.03;3.60;;;;;;;9.07;74.58;99642.91;5072396;28;20516;-82
2024/01/02 11:08:20;;;;;;;20.17;3.80;;;;;;;9.07;74.33;99610.50;5072588;28;20052;-82
2024/01/02 11:10:58;;;;;;;18.50;3.30;;;;;;;9.06;74.53;99599.16;5071292;28;20412;-82
2024/01/02 11:13:26;;;;;;;16.83;4.18;;;;;;;9.12;74.59;99604.34;5070285;28;20044;-82
2024/01/02 11:16:16;;;;;;;27.17;6.20;;;;;;;9.16;74.28;99590.28;5070375;28;20055;-82
2024/01/02 11:18:45;;;;;;;23.47;5.60;;;;;;;9.20;74.31;99580.63;5070451;28;20032;-81
2024/01/02 11:21:15;;;;;;;14.40;5.07;;;;;;;9.24;74.64;99542.06;5072558;28;20031;-83
2024/01/02 11:23:45;;;;;;;15.88;5.60;;;;;;;9.26;74.54;99529.78;5079853;28;20048;-82
2024/01/02 11:26:23;;;;;;;14.60;3.00;;;;;;;9.31;74.62;99543.75;5083617;28;20278;-81
2024/01/02 11:28:50;;;;;;;14.05;3.80;;;;;;;9.36;74.73;99523.53;5092159;28;20111;-83
2024/01/02 11:31:17;;;;;;;10.93;2.90;;;;;;;9.42;74.65;99498.97;5093595;28;20483;-85
2024/01/02 11:34:27;;;;;;;9.02;2.95;;;;;;;9.42;74.37;99491.94;5071971;28;20404;-83
2024/01/02 11:37:05;;;;;;;13.50;3.10;;;;;;;9.48;74.59;99499.75;5090427;28;20043;-83